This is the latest recevied weather packets stored in our database for station/object IU2RPR-3. If no packets are shown the sender has not sent any weather packets the latest 10 day(s).
| Time | Temp. | Humidity | Pressure | Rain* | Wind** | Luminosity | Snow |
|---|---|---|---|---|---|---|---|
| 1788433953 | 30° C | 45% | 1018.1 hPa | - | - | - | - |
| 1788431549 | 27.78° C | 48% | 1018.6 hPa | - | - | - | - |
| 1788430348 | 27.78° C | 48% | 1018.9 hPa | - | - | - | - |
| 1788429147 | 27.22° C | 49% | 1018.8 hPa | - | - | - | - |
| 1788427945 | 27.22° C | 50% | 1018.9 hPa | - | - | - | - |
| 1788426744 | 26.67° C | 48% | 1019 hPa | - | - | - | - |
| 1788425543 | 26.11° C | 50% | 1019.1 hPa | - | - | - | - |
| 1788424341 | 25.56° C | 51% | 1019.2 hPa | - | - | - | - |
| 1788423140 | 25° C | 54% | 1019.2 hPa | - | - | - | - |
| 1788421939 | 24.44° C | 53% | 1018.9 hPa | - | - | - | - |
| 1788420737 | 23.89° C | 56% | 1018.8 hPa | - | - | - | - |
| 1788419536 | 23.33° C | 58% | 1019.1 hPa | - | - | - | - |
| 1788418334 | 22.22° C | 62% | 1019 hPa | - | - | - | - |
| 1788417133 | 21.67° C | 65% | 1019.1 hPa | - | - | - | - |
| 1788415932 | 21.11° C | 66% | 1019 hPa | - | - | - | - |
| 1788414730 | 20.56° C | 69% | 1019 hPa | - | - | - | - |
| 1788413529 | 20° C | 69% | 1018.9 hPa | - | - | - | - |
| 1788412328 | 20° C | 71% | 1018.7 hPa | - | - | - | - |
| 1788411126 | 20° C | 71% | 1018.5 hPa | - | - | - | - |
| 1788409924 | 20.56° C | 68% | 1018.3 hPa | - | - | - | - |
| 1788408723 | 20° C | 71% | 1018.1 hPa | - | - | - | - |
| 1788407522 | 20.56° C | 70% | 1018.1 hPa | - | - | - | - |
| 1788406320 | 20° C | 71% | 1018 hPa | - | - | - | - |
| 1788405118 | 20° C | 71% | 1018 hPa | - | - | - | - |
| 1788403917 | 20.56° C | 69% | 1017.9 hPa | - | - | - | - |
* Rain since midnight (hover to see other rain measurements)
** Current wind speed in m/s (hover to see current wind gust speed)